sensor_id;sensor_type;location;lat;lon;timestamp;P1;durP1;ratioP1;P2;durP2;ratioP2
67237;SDS011;54149;52.708;6.178;2024-03-02T00:01:14;12.45;;;4.20;;
67237;SDS011;54149;52.708;6.178;2024-03-02T00:03:41;11.43;;;3.70;;
67237;SDS011;54149;52.708;6.178;2024-03-02T00:06:08;8.88;;;3.75;;
67237;SDS011;54149;52.708;6.178;2024-03-02T00:08:35;8.85;;;4.00;;
67237;SDS011;54149;52.708;6.178;2024-03-02T00:11:01;7.93;;;4.05;;
67237;SDS011;54149;52.708;6.178;2024-03-02T00:13:28;8.40;;;3.40;;
67237;SDS011;54149;52.708;6.178;2024-03-02T00:15:56;8.15;;;3.63;;
67237;SDS011;54149;52.708;6.178;2024-03-02T00:18:35;8.73;;;3.50;;
67237;SDS011;54149;52.708;6.178;2024-03-02T00:21:01;5.88;;;3.85;;
67237;SDS011;54149;52.708;6.178;2024-03-02T00:23:32;8.65;;;4.07;;
67237;SDS011;54149;52.708;6.178;2024-03-02T00:25:58;12.88;;;4.03;;
67237;SDS011;54149;52.708;6.178;2024-03-02T00:28:29;7.68;;;3.83;;
67237;SDS011;54149;52.708;6.178;2024-03-02T00:33:26;8.05;;;4.10;;
67237;SDS011;54149;52.708;6.178;2024-03-02T00:35:55;7.22;;;3.75;;
67237;SDS011;54149;52.708;6.178;2024-03-02T00:38:21;8.38;;;4.00;;
67237;SDS011;54149;52.708;6.178;2024-03-02T00:40:48;10.15;;;4.25;;
67237;SDS011;54149;52.708;6.178;2024-03-02T00:45:59;12.60;;;4.32;;
67237;SDS011;54149;52.708;6.178;2024-03-02T00:48:25;8.90;;;3.80;;
67237;SDS011;54149;52.708;6.178;2024-03-02T00:50:52;9.65;;;3.55;;
67237;SDS011;54149;52.708;6.178;2024-03-02T00:53:18;8.07;;;3.83;;
67237;SDS011;54149;52.708;6.178;2024-03-02T00:55:45;6.47;;;3.55;;
67237;SDS011;54149;52.708;6.178;2024-03-02T00:58:13;5.80;;;3.38;;
67237;SDS011;54149;52.708;6.178;2024-03-02T01:00:39;6.30;;;3.70;;
67237;SDS011;54149;52.708;6.178;2024-03-02T01:03:05;6.32;;;3.42;;
67237;SDS011;54149;52.708;6.178;2024-03-02T01:05:33;5.78;;;3.30;;
67237;SDS011;54149;52.708;6.178;2024-03-02T01:08:00;5.80;;;3.05;;
67237;SDS011;54149;52.708;6.178;2024-03-02T01:10:26;7.88;;;3.50;;
67237;SDS011;54149;52.708;6.178;2024-03-02T01:12:52;6.93;;;3.47;;
67237;SDS011;54149;52.708;6.178;2024-03-02T01:15:18;6.32;;;3.47;;
67237;SDS011;54149;52.708;6.178;2024-03-02T01:17:44;6.88;;;3.60;;
67237;SDS011;54149;52.708;6.178;2024-03-02T01:20:11;6.47;;;3.38;;
67237;SDS011;54149;52.708;6.178;2024-03-02T01:22:37;6.00;;;2.83;;
67237;SDS011;54149;52.708;6.178;2024-03-02T01:25:03;5.32;;;3.10;;
67237;SDS011;54149;52.708;6.178;2024-03-02T01:27:29;7.25;;;3.17;;
67237;SDS011;54149;52.708;6.178;2024-03-02T01:29:55;5.72;;;3.30;;
67237;SDS011;54149;52.708;6.178;2024-03-02T01:32:21;7.45;;;3.33;;
67237;SDS011;54149;52.708;6.178;2024-03-02T01:34:48;6.63;;;3.20;;
67237;SDS011;54149;52.708;6.178;2024-03-02T01:37:14;5.38;;;3.03;;
67237;SDS011;54149;52.708;6.178;2024-03-02T01:39:40;5.68;;;2.70;;
67237;SDS011;54149;52.708;6.178;2024-03-02T01:42:06;6.55;;;3.15;;
67237;SDS011;54149;52.708;6.178;2024-03-02T01:44:32;4.82;;;2.70;;
67237;SDS011;54149;52.708;6.178;2024-03-02T01:46:58;7.13;;;3.13;;
67237;SDS011;54149;52.708;6.178;2024-03-02T01:49:24;5.50;;;2.90;;
67237;SDS011;54149;52.708;6.178;2024-03-02T01:51:50;8.68;;;2.92;;
67237;SDS011;54149;52.708;6.178;2024-03-02T01:54:16;6.55;;;2.88;;
67237;SDS011;54149;52.708;6.178;2024-03-02T01:56:43;5.75;;;3.03;;
67237;SDS011;54149;52.708;6.178;2024-03-02T01:59:09;9.32;;;2.95;;
67237;SDS011;54149;52.708;6.178;2024-03-02T02:01:35;9.45;;;3.70;;
67237;SDS011;54149;52.708;6.178;2024-03-02T02:04:01;5.45;;;2.85;;
67237;SDS011;54149;52.708;6.178;2024-03-02T02:06:27;9.75;;;2.70;;
67237;SDS011;54149;52.708;6.178;2024-03-02T02:08:53;8.25;;;3.10;;
67237;SDS011;54149;52.708;6.178;2024-03-02T02:11:20;6.72;;;2.50;;
67237;SDS011;54149;52.708;6.178;2024-03-02T02:13:46;5.85;;;2.58;;
67237;SDS011;54149;52.708;6.178;2024-03-02T02:16:12;7.82;;;2.80;;
67237;SDS011;54149;52.708;6.178;2024-03-02T02:18:38;6.22;;;2.80;;
67237;SDS011;54149;52.708;6.178;2024-03-02T02:21:04;6.45;;;2.13;;
67237;SDS011;54149;52.708;6.178;2024-03-02T02:23:30;5.38;;;2.10;;
67237;SDS011;54149;52.708;6.178;2024-03-02T02:25:56;8.50;;;2.60;;
67237;SDS011;54149;52.708;6.178;2024-03-02T02:28:22;5.45;;;2.42;;
67237;SDS011;54149;52.708;6.178;2024-03-02T02:30:48;6.40;;;2.92;;
67237;SDS011;54149;52.708;6.178;2024-03-02T02:33:14;4.80;;;2.70;;
67237;SDS011;54149;52.708;6.178;2024-03-02T02:35:41;5.95;;;2.60;;
67237;SDS011;54149;52.708;6.178;2024-03-02T02:38:07;6.40;;;2.58;;
67237;SDS011;54149;52.708;6.178;2024-03-02T02:40:33;5.60;;;3.03;;
67237;SDS011;54149;52.708;6.178;2024-03-02T02:42:59;5.63;;;3.45;;
67237;SDS011;54149;52.708;6.178;2024-03-02T02:45:25;9.32;;;3.50;;
67237;SDS011;54149;52.708;6.178;2024-03-02T02:47:51;5.63;;;3.55;;
67237;SDS011;54149;52.708;6.178;2024-03-02T02:50:17;7.90;;;4.15;;
67237;SDS011;54149;52.708;6.178;2024-03-02T02:52:43;6.22;;;3.40;;
67237;SDS011;54149;52.708;6.178;2024-03-02T02:55:10;8.25;;;3.03;;
67237;SDS011;54149;52.708;6.178;2024-03-02T02:57:37;8.90;;;3.75;;
67237;SDS011;54149;52.708;6.178;2024-03-02T03:00:08;6.45;;;3.20;;
67237;SDS011;54149;52.708;6.178;2024-03-02T03:02:38;6.93;;;3.63;;
67237;SDS011;54149;52.708;6.178;2024-03-02T03:05:07;8.77;;;3.72;;
67237;SDS011;54149;52.708;6.178;2024-03-02T03:07:34;7.60;;;3.63;;
67237;SDS011;54149;52.708;6.178;2024-03-02T03:10:01;7.80;;;3.78;;
67237;SDS011;54149;52.708;6.178;2024-03-02T03:12:28;5.78;;;3.35;;
67237;SDS011;54149;52.708;6.178;2024-03-02T03:14:55;8.20;;;3.72;;
67237;SDS011;54149;52.708;6.178;2024-03-02T03:17:21;7.40;;;3.45;;
67237;SDS011;54149;52.708;6.178;2024-03-02T03:19:48;10.73;;;3.92;;
67237;SDS011;54149;52.708;6.178;2024-03-02T03:22:14;7.05;;;3.72;;
67237;SDS011;54149;52.708;6.178;2024-03-02T03:24:40;7.10;;;3.67;;
67237;SDS011;54149;52.708;6.178;2024-03-02T03:27:06;9.82;;;3.85;;
67237;SDS011;54149;52.708;6.178;2024-03-02T03:29:32;7.43;;;3.83;;
67237;SDS011;54149;52.708;6.178;2024-03-02T03:31:58;8.30;;;3.80;;
67237;SDS011;54149;52.708;6.178;2024-03-02T03:34:24;6.45;;;3.67;;
67237;SDS011;54149;52.708;6.178;2024-03-02T03:36:50;7.15;;;3.65;;
67237;SDS011;54149;52.708;6.178;2024-03-02T03:39:17;8.35;;;3.10;;
67237;SDS011;54149;52.708;6.178;2024-03-02T03:41:43;7.97;;;3.60;;
67237;SDS011;54149;52.708;6.178;2024-03-02T03:44:09;6.25;;;3.25;;
67237;SDS011;54149;52.708;6.178;2024-03-02T03:46:35;8.77;;;3.38;;
67237;SDS011;54149;52.708;6.178;2024-03-02T03:49:01;6.40;;;2.65;;
67237;SDS011;54149;52.708;6.178;2024-03-02T03:51:28;4.68;;;2.83;;
67237;SDS011;54149;52.708;6.178;2024-03-02T03:53:55;5.13;;;2.28;;
67237;SDS011;54149;52.708;6.178;2024-03-02T03:56:21;4.53;;;1.90;;
67237;SDS011;54149;52.708;6.178;2024-03-02T03:58:47;5.38;;;1.88;;
67237;SDS011;54149;52.708;6.178;2024-03-02T04:01:13;3.85;;;1.85;;
67237;SDS011;54149;52.708;6.178;2024-03-02T04:03:39;3.60;;;1.70;;
67237;SDS011;54149;52.708;6.178;2024-03-02T04:06:05;4.47;;;1.30;;
67237;SDS011;54149;52.708;6.178;2024-03-02T04:08:32;5.80;;;1.85;;
67237;SDS011;54149;52.708;6.178;2024-03-02T04:10:58;3.92;;;1.80;;
67237;SDS011;54149;52.708;6.178;2024-03-02T04:13:24;5.97;;;1.80;;
67237;SDS011;54149;52.708;6.178;2024-03-02T04:15:50;6.03;;;1.92;;
67237;SDS011;54149;52.708;6.178;2024-03-02T04:18:16;4.10;;;1.40;;
67237;SDS011;54149;52.708;6.178;2024-03-02T04:20:43;3.83;;;1.73;;
67237;SDS011;54149;52.708;6.178;2024-03-02T04:23:09;5.57;;;2.53;;
67237;SDS011;54149;52.708;6.178;2024-03-02T04:25:35;8.55;;;2.65;;
67237;SDS011;54149;52.708;6.178;2024-03-02T04:28:01;8.15;;;2.78;;
67237;SDS011;54149;52.708;6.178;2024-03-02T04:30:27;5.65;;;1.83;;
67237;SDS011;54149;52.708;6.178;2024-03-02T04:32:53;3.95;;;1.45;;
67237;SDS011;54149;52.708;6.178;2024-03-02T04:35:20;4.85;;;1.60;;
67237;SDS011;54149;52.708;6.178;2024-03-02T04:37:46;3.13;;;1.50;;
67237;SDS011;54149;52.708;6.178;2024-03-02T04:40:12;3.58;;;1.20;;
67237;SDS011;54149;52.708;6.178;2024-03-02T04:42:38;5.30;;;1.38;;
67237;SDS011;54149;52.708;6.178;2024-03-02T04:45:04;5.43;;;1.83;;
67237;SDS011;54149;52.708;6.178;2024-03-02T04:47:30;4.70;;;1.38;;
67237;SDS011;54149;52.708;6.178;2024-03-02T04:49:57;2.28;;;0.85;;
67237;SDS011;54149;52.708;6.178;2024-03-02T04:52:23;3.45;;;1.00;;
67237;SDS011;54149;52.708;6.178;2024-03-02T04:54:49;3.22;;;1.17;;
67237;SDS011;54149;52.708;6.178;2024-03-02T04:57:33;4.28;;;0.82;;
67237;SDS011;54149;52.708;6.178;2024-03-02T04:59:59;1.00;;;0.57;;
67237;SDS011;54149;52.708;6.178;2024-03-02T05:02:26;1.15;;;0.75;;
67237;SDS011;54149;52.708;6.178;2024-03-02T05:04:52;2.15;;;0.60;;
67237;SDS011;54149;52.708;6.178;2024-03-02T05:07:18;2.50;;;0.60;;
67237;SDS011;54149;52.708;6.178;2024-03-02T05:09:44;1.48;;;1.00;;
67237;SDS011;54149;52.708;6.178;2024-03-02T05:12:10;1.85;;;0.73;;
67237;SDS011;54149;52.708;6.178;2024-03-02T05:15:06;4.22;;;1.05;;
67237;SDS011;54149;52.708;6.178;2024-03-02T05:17:32;8.23;;;2.70;;
67237;SDS011;54149;52.708;6.178;2024-03-02T05:19:59;6.80;;;1.80;;
67237;SDS011;54149;52.708;6.178;2024-03-02T05:22:25;12.13;;;2.65;;
67237;SDS011;54149;52.708;6.178;2024-03-02T05:24:51;9.52;;;1.83;;
67237;SDS011;54149;52.708;6.178;2024-03-02T05:27:17;6.00;;;1.98;;
67237;SDS011;54149;52.708;6.178;2024-03-02T05:29:43;17.40;;;3.03;;
67237;SDS011;54149;52.708;6.178;2024-03-02T05:32:09;15.85;;;3.92;;
67237;SDS011;54149;52.708;6.178;2024-03-02T05:34:35;17.92;;;3.90;;
67237;SDS011;54149;52.708;6.178;2024-03-02T05:37:01;9.60;;;1.98;;
67237;SDS011;54149;52.708;6.178;2024-03-02T05:39:28;5.68;;;1.77;;
67237;SDS011;54149;52.708;6.178;2024-03-02T05:41:54;5.40;;;1.30;;
67237;SDS011;54149;52.708;6.178;2024-03-02T05:44:20;6.45;;;1.95;;
67237;SDS011;54149;52.708;6.178;2024-03-02T05:46:47;3.88;;;1.45;;
67237;SDS011;54149;52.708;6.178;2024-03-02T05:49:13;4.72;;;1.83;;
67237;SDS011;54149;52.708;6.178;2024-03-02T05:51:39;3.67;;;1.58;;
67237;SDS011;54149;52.708;6.178;2024-03-02T05:54:06;5.93;;;1.98;;
67237;SDS011;54149;52.708;6.178;2024-03-02T05:56:32;7.20;;;1.90;;
67237;SDS011;54149;52.708;6.178;2024-03-02T05:58:58;7.00;;;2.03;;
67237;SDS011;54149;52.708;6.178;2024-03-02T06:01:47;5.47;;;1.70;;
67237;SDS011;54149;52.708;6.178;2024-03-02T06:04:17;2.75;;;1.20;;
67237;SDS011;54149;52.708;6.178;2024-03-02T06:06:43;4.10;;;1.50;;
67237;SDS011;54149;52.708;6.178;2024-03-02T06:09:10;3.42;;;1.80;;
67237;SDS011;54149;52.708;6.178;2024-03-02T06:11:39;3.50;;;1.45;;
67237;SDS011;54149;52.708;6.178;2024-03-02T06:14:06;4.47;;;1.17;;
67237;SDS011;54149;52.708;6.178;2024-03-02T06:16:33;1.92;;;1.05;;
67237;SDS011;54149;52.708;6.178;2024-03-02T06:18:59;2.70;;;1.15;;
67237;SDS011;54149;52.708;6.178;2024-03-02T06:21:25;1.75;;;1.10;;
67237;SDS011;54149;52.708;6.178;2024-03-02T06:23:52;3.15;;;1.38;;
67237;SDS011;54149;52.708;6.178;2024-03-02T06:26:18;2.92;;;1.23;;
67237;SDS011;54149;52.708;6.178;2024-03-02T06:28:44;3.10;;;1.17;;
67237;SDS011;54149;52.708;6.178;2024-03-02T06:31:10;2.88;;;1.35;;
67237;SDS011;54149;52.708;6.178;2024-03-02T06:33:37;2.15;;;1.00;;
67237;SDS011;54149;52.708;6.178;2024-03-02T06:36:03;4.30;;;1.30;;
67237;SDS011;54149;52.708;6.178;2024-03-02T06:38:29;3.28;;;0.90;;
67237;SDS011;54149;52.708;6.178;2024-03-02T06:40:58;2.38;;;0.90;;
67237;SDS011;54149;52.708;6.178;2024-03-02T06:43:25;3.15;;;1.00;;
67237;SDS011;54149;52.708;6.178;2024-03-02T06:45:51;1.90;;;0.95;;
67237;SDS011;54149;52.708;6.178;2024-03-02T06:48:17;1.73;;;0.80;;
67237;SDS011;54149;52.708;6.178;2024-03-02T06:50:48;2.63;;;1.08;;
67237;SDS011;54149;52.708;6.178;2024-03-02T06:53:15;1.63;;;0.80;;
67237;SDS011;54149;52.708;6.178;2024-03-02T06:55:44;3.15;;;1.00;;
67237;SDS011;54149;52.708;6.178;2024-03-02T06:58:14;1.95;;;1.13;;
67237;SDS011;54149;52.708;6.178;2024-03-02T07:00:43;7.68;;;1.30;;
67237;SDS011;54149;52.708;6.178;2024-03-02T07:03:10;3.63;;;1.02;;
67237;SDS011;54149;52.708;6.178;2024-03-02T07:05:37;2.83;;;1.42;;
67237;SDS011;54149;52.708;6.178;2024-03-02T07:08:03;3.10;;;1.33;;
67237;SDS011;54149;52.708;6.178;2024-03-02T07:10:30;6.28;;;1.50;;
67237;SDS011;54149;52.708;6.178;2024-03-02T07:12:56;3.47;;;1.65;;
67237;SDS011;54149;52.708;6.178;2024-03-02T07:15:22;6.25;;;2.10;;
67237;SDS011;54149;52.708;6.178;2024-03-02T07:18:07;8.98;;;2.55;;
67237;SDS011;54149;52.708;6.178;2024-03-02T07:20:33;5.28;;;1.73;;
67237;SDS011;54149;52.708;6.178;2024-03-02T07:23:00;1.85;;;1.20;;
67237;SDS011;54149;52.708;6.178;2024-03-02T07:25:27;5.78;;;1.27;;
67237;SDS011;54149;52.708;6.178;2024-03-02T07:27:53;3.70;;;1.50;;
67237;SDS011;54149;52.708;6.178;2024-03-02T07:30:19;5.05;;;1.10;;
67237;SDS011;54149;52.708;6.178;2024-03-02T07:32:45;2.85;;;1.42;;
67237;SDS011;54149;52.708;6.178;2024-03-02T07:35:14;7.55;;;2.65;;
67237;SDS011;54149;52.708;6.178;2024-03-02T07:37:41;6.05;;;2.53;;
67237;SDS011;54149;52.708;6.178;2024-03-02T07:40:07;3.67;;;1.40;;
67237;SDS011;54149;52.708;6.178;2024-03-02T07:42:37;4.57;;;1.20;;
67237;SDS011;54149;52.708;6.178;2024-03-02T07:45:04;2.88;;;1.00;;
67237;SDS011;54149;52.708;6.178;2024-03-02T07:47:31;2.63;;;0.93;;
67237;SDS011;54149;52.708;6.178;2024-03-02T07:49:57;2.72;;;1.00;;
67237;SDS011;54149;52.708;6.178;2024-03-02T07:52:23;2.72;;;0.80;;
67237;SDS011;54149;52.708;6.178;2024-03-02T07:54:49;1.25;;;0.80;;
67237;SDS011;54149;52.708;6.178;2024-03-02T07:57:16;3.45;;;0.80;;
67237;SDS011;54149;52.708;6.178;2024-03-02T07:59:42;2.67;;;0.95;;
67237;SDS011;54149;52.708;6.178;2024-03-02T08:02:08;1.60;;;0.77;;
67237;SDS011;54149;52.708;6.178;2024-03-02T08:04:35;1.98;;;1.02;;
67237;SDS011;54149;52.708;6.178;2024-03-02T08:07:02;3.08;;;0.70;;
67237;SDS011;54149;52.708;6.178;2024-03-02T08:09:28;1.48;;;0.73;;
67237;SDS011;54149;52.708;6.178;2024-03-02T08:11:55;2.25;;;1.23;;
67237;SDS011;54149;52.708;6.178;2024-03-02T08:14:22;4.18;;;0.90;;
67237;SDS011;54149;52.708;6.178;2024-03-02T08:16:49;3.30;;;1.10;;
67237;SDS011;54149;52.708;6.178;2024-03-02T08:19:15;3.28;;;1.10;;
67237;SDS011;54149;52.708;6.178;2024-03-02T08:21:42;6.30;;;1.15;;
67237;SDS011;54149;52.708;6.178;2024-03-02T08:24:08;3.03;;;1.00;;
67237;SDS011;54149;52.708;6.178;2024-03-02T08:26:36;1.92;;;1.00;;
67237;SDS011;54149;52.708;6.178;2024-03-02T08:29:02;2.70;;;1.38;;
67237;SDS011;54149;52.708;6.178;2024-03-02T08:31:28;3.58;;;1.70;;
67237;SDS011;54149;52.708;6.178;2024-03-02T08:33:54;7.43;;;3.15;;
67237;SDS011;54149;52.708;6.178;2024-03-02T08:36:22;10.02;;;3.97;;
67237;SDS011;54149;52.708;6.178;2024-03-02T08:38:51;9.70;;;2.70;;
67237;SDS011;54149;52.708;6.178;2024-03-02T08:41:18;4.97;;;1.60;;
67237;SDS011;54149;52.708;6.178;2024-03-02T08:43:44;3.92;;;1.02;;
67237;SDS011;54149;52.708;6.178;2024-03-02T08:46:10;2.47;;;1.27;;
67237;SDS011;54149;52.708;6.178;2024-03-02T08:48:36;3.08;;;1.05;;
67237;SDS011;54149;52.708;6.178;2024-03-02T08:51:03;3.20;;;1.25;;
67237;SDS011;54149;52.708;6.178;2024-03-02T08:53:32;7.13;;;1.33;;
67237;SDS011;54149;52.708;6.178;2024-03-02T08:55:58;3.92;;;1.10;;
67237;SDS011;54149;52.708;6.178;2024-03-02T08:58:24;6.00;;;1.30;;
67237;SDS011;54149;52.708;6.178;2024-03-02T09:00:51;3.65;;;1.60;;
67237;SDS011;54149;52.708;6.178;2024-03-02T09:03:17;2.83;;;1.00;;
67237;SDS011;54149;52.708;6.178;2024-03-02T09:05:43;4.93;;;1.33;;
67237;SDS011;54149;52.708;6.178;2024-03-02T09:08:09;8.60;;;1.33;;
67237;SDS011;54149;52.708;6.178;2024-03-02T09:10:36;3.22;;;1.42;;
67237;SDS011;54149;52.708;6.178;2024-03-02T09:13:04;1.90;;;1.05;;
67237;SDS011;54149;52.708;6.178;2024-03-02T09:15:30;2.45;;;1.20;;
67237;SDS011;54149;52.708;6.178;2024-03-02T09:17:56;5.03;;;1.25;;
67237;SDS011;54149;52.708;6.178;2024-03-02T09:20:22;5.43;;;1.70;;
67237;SDS011;54149;52.708;6.178;2024-03-02T09:22:49;6.15;;;1.23;;
67237;SDS011;54149;52.708;6.178;2024-03-02T09:25:15;7.80;;;2.25;;
67237;SDS011;54149;52.708;6.178;2024-03-02T09:27:41;6.90;;;1.95;;
67237;SDS011;54149;52.708;6.178;2024-03-02T09:30:07;5.38;;;1.25;;
67237;SDS011;54149;52.708;6.178;2024-03-02T09:32:35;6.43;;;1.42;;
67237;SDS011;54149;52.708;6.178;2024-03-02T09:35:01;2.50;;;1.25;;
67237;SDS011;54149;52.708;6.178;2024-03-02T09:37:28;3.47;;;1.10;;
67237;SDS011;54149;52.708;6.178;2024-03-02T09:39:54;3.35;;;1.15;;
67237;SDS011;54149;52.708;6.178;2024-03-02T09:42:20;6.97;;;1.33;;
67237;SDS011;54149;52.708;6.178;2024-03-02T09:44:47;6.95;;;1.30;;
67237;SDS011;54149;52.708;6.178;2024-03-02T09:47:13;4.97;;;1.50;;
67237;SDS011;54149;52.708;6.178;2024-03-02T09:49:39;12.48;;;2.20;;
67237;SDS011;54149;52.708;6.178;2024-03-02T09:52:05;11.05;;;1.88;;
67237;SDS011;54149;52.708;6.178;2024-03-02T09:54:32;5.90;;;1.40;;
67237;SDS011;54149;52.708;6.178;2024-03-02T09:56:59;5.70;;;1.73;;
67237;SDS011;54149;52.708;6.178;2024-03-02T09:59:26;4.10;;;1.15;;
67237;SDS011;54149;52.708;6.178;2024-03-02T10:02:03;6.10;;;1.17;;
67237;SDS011;54149;52.708;6.178;2024-03-02T10:04:32;3.85;;;1.17;;
67237;SDS011;54149;52.708;6.178;2024-03-02T10:07:18;5.53;;;1.10;;
67237;SDS011;54149;52.708;6.178;2024-03-02T10:09:45;7.40;;;1.30;;
67237;SDS011;54149;52.708;6.178;2024-03-02T10:12:12;5.97;;;0.90;;
67237;SDS011;54149;52.708;6.178;2024-03-02T10:14:38;3.92;;;1.20;;
67237;SDS011;54149;52.708;6.178;2024-03-02T10:17:08;5.40;;;1.00;;
67237;SDS011;54149;52.708;6.178;2024-03-02T10:19:35;6.95;;;1.55;;
67237;SDS011;54149;52.708;6.178;2024-03-02T10:22:05;4.93;;;1.38;;
67237;SDS011;54149;52.708;6.178;2024-03-02T10:24:42;5.90;;;1.23;;
67237;SDS011;54149;52.708;6.178;2024-03-02T10:27:16;7.70;;;1.88;;
67237;SDS011;54149;52.708;6.178;2024-03-02T10:29:45;6.15;;;1.50;;
67237;SDS011;54149;52.708;6.178;2024-03-02T10:32:11;6.97;;;1.55;;
67237;SDS011;54149;52.708;6.178;2024-03-02T10:34:42;8.00;;;1.30;;
67237;SDS011;54149;52.708;6.178;2024-03-02T10:37:08;5.05;;;1.60;;
67237;SDS011;54149;52.708;6.178;2024-03-02T10:39:34;7.28;;;1.55;;
67237;SDS011;54149;52.708;6.178;2024-03-02T10:42:02;6.07;;;1.40;;
67237;SDS011;54149;52.708;6.178;2024-03-02T10:44:28;5.10;;;1.42;;
67237;SDS011;54149;52.708;6.178;2024-03-02T10:46:55;5.82;;;1.30;;
67237;SDS011;54149;52.708;6.178;2024-03-02T10:49:22;10.50;;;1.77;;
67237;SDS011;54149;52.708;6.178;2024-03-02T10:51:49;3.90;;;1.48;;
67237;SDS011;54149;52.708;6.178;2024-03-02T10:54:16;5.68;;;1.45;;
67237;SDS011;54149;52.708;6.178;2024-03-02T10:56:44;9.38;;;1.20;;
67237;SDS011;54149;52.708;6.178;2024-03-02T10:59:17;12.77;;;1.08;;
67237;SDS011;54149;52.708;6.178;2024-03-02T11:01:47;7.70;;;1.10;;
67237;SDS011;54149;52.708;6.178;2024-03-02T11:04:15;5.65;;;1.75;;
67237;SDS011;54149;52.708;6.178;2024-03-02T11:06:48;8.05;;;1.27;;
67237;SDS011;54149;52.708;6.178;2024-03-02T11:09:14;6.17;;;1.23;;
67237;SDS011;54149;52.708;6.178;2024-03-02T11:11:42;6.32;;;1.58;;
67237;SDS011;54149;52.708;6.178;2024-03-02T11:14:16;10.38;;;1.25;;
67237;SDS011;54149;52.708;6.178;2024-03-02T11:16:43;6.57;;;1.60;;
67237;SDS011;54149;52.708;6.178;2024-03-02T11:19:13;10.88;;;1.02;;
67237;SDS011;54149;52.708;6.178;2024-03-02T11:21:39;3.92;;;1.13;;
67237;SDS011;54149;52.708;6.178;2024-03-02T11:32:01;11.85;;;1.42;;
67237;SDS011;54149;52.708;6.178;2024-03-02T11:34:28;6.07;;;1.45;;
67237;SDS011;54149;52.708;6.178;2024-03-02T11:36:55;6.47;;;1.38;;
67237;SDS011;54149;52.708;6.178;2024-03-02T11:39:21;5.35;;;1.30;;
67237;SDS011;54149;52.708;6.178;2024-03-02T11:41:47;2.83;;;1.17;;
67237;SDS011;54149;52.708;6.178;2024-03-02T11:44:14;7.38;;;1.75;;
67237;SDS011;54149;52.708;6.178;2024-03-02T11:46:41;11.70;;;1.38;;
67237;SDS011;54149;52.708;6.178;2024-03-02T11:49:07;11.00;;;1.65;;
67237;SDS011;54149;52.708;6.178;2024-03-02T11:51:34;8.57;;;1.30;;
67237;SDS011;54149;52.708;6.178;2024-03-02T11:54:01;6.75;;;1.20;;
67237;SDS011;54149;52.708;6.178;2024-03-02T11:56:28;5.05;;;1.30;;
67237;SDS011;54149;52.708;6.178;2024-03-02T11:58:56;12.18;;;1.20;;
67237;SDS011;54149;52.708;6.178;2024-03-02T12:01:23;7.75;;;1.33;;
67237;SDS011;54149;52.708;6.178;2024-03-02T12:03:49;5.20;;;1.30;;
67237;SDS011;54149;52.708;6.178;2024-03-02T12:06:15;9.73;;;1.50;;
67237;SDS011;54149;52.708;6.178;2024-03-02T12:08:42;8.45;;;1.35;;
67237;SDS011;54149;52.708;6.178;2024-03-02T12:11:08;6.28;;;1.23;;
67237;SDS011;54149;52.708;6.178;2024-03-02T12:13:38;5.63;;;1.38;;
67237;SDS011;54149;52.708;6.178;2024-03-02T12:16:05;12.75;;;1.73;;
67237;SDS011;54149;52.708;6.178;2024-03-02T12:18:31;7.50;;;1.65;;
67237;SDS011;54149;52.708;6.178;2024-03-02T12:20:57;7.25;;;1.83;;
67237;SDS011;54149;52.708;6.178;2024-03-02T12:23:23;9.80;;;2.00;;
67237;SDS011;54149;52.708;6.178;2024-03-02T12:25:49;6.75;;;1.80;;
67237;SDS011;54149;52.708;6.178;2024-03-02T12:28:16;8.63;;;1.83;;
67237;SDS011;54149;52.708;6.178;2024-03-02T12:30:42;11.90;;;1.80;;
67237;SDS011;54149;52.708;6.178;2024-03-02T12:33:10;5.93;;;2.05;;
67237;SDS011;54149;52.708;6.178;2024-03-02T12:35:36;10.38;;;1.92;;
67237;SDS011;54149;52.708;6.178;2024-03-02T12:38:03;10.10;;;2.30;;
67237;SDS011;54149;52.708;6.178;2024-03-02T12:40:30;16.58;;;6.78;;
67237;SDS011;54149;52.708;6.178;2024-03-02T12:42:57;5.25;;;2.03;;
67237;SDS011;54149;52.708;6.178;2024-03-02T12:45:23;9.68;;;2.08;;
67237;SDS011;54149;52.708;6.178;2024-03-02T12:47:49;8.65;;;1.60;;
67237;SDS011;54149;52.708;6.178;2024-03-02T12:50:16;8.88;;;1.60;;
67237;SDS011;54149;52.708;6.178;2024-03-02T12:52:42;10.15;;;2.58;;
67237;SDS011;54149;52.708;6.178;2024-03-02T12:55:09;6.38;;;2.28;;
67237;SDS011;54149;52.708;6.178;2024-03-02T12:57:35;3.97;;;1.67;;
67237;SDS011;54149;52.708;6.178;2024-03-02T13:00:02;8.77;;;2.30;;
67237;SDS011;54149;52.708;6.178;2024-03-02T13:02:35;10.30;;;2.30;;
67237;SDS011;54149;52.708;6.178;2024-03-02T13:05:02;7.80;;;2.05;;
67237;SDS011;54149;52.708;6.178;2024-03-02T13:07:29;7.78;;;2.00;;
67237;SDS011;54149;52.708;6.178;2024-03-02T13:09:55;7.78;;;2.78;;
67237;SDS011;54149;52.708;6.178;2024-03-02T13:12:22;8.55;;;2.30;;
67237;SDS011;54149;52.708;6.178;2024-03-02T13:14:51;17.08;;;2.42;;
67237;SDS011;54149;52.708;6.178;2024-03-02T13:17:18;8.18;;;2.55;;
67237;SDS011;54149;52.708;6.178;2024-03-02T13:19:53;11.00;;;2.05;;
67237;SDS011;54149;52.708;6.178;2024-03-02T13:22:20;8.25;;;2.40;;
67237;SDS011;54149;52.708;6.178;2024-03-02T13:24:47;7.35;;;2.60;;
67237;SDS011;54149;52.708;6.178;2024-03-02T13:27:13;6.05;;;2.30;;
67237;SDS011;54149;52.708;6.178;2024-03-02T13:29:39;11.13;;;2.50;;
67237;SDS011;54149;52.708;6.178;2024-03-02T13:32:06;12.00;;;2.70;;
67237;SDS011;54149;52.708;6.178;2024-03-02T13:34:32;10.10;;;3.05;;
67237;SDS011;54149;52.708;6.178;2024-03-02T13:36:58;9.10;;;2.25;;
67237;SDS011;54149;52.708;6.178;2024-03-02T13:39:26;7.60;;;2.85;;
67237;SDS011;54149;52.708;6.178;2024-03-02T13:41:55;10.13;;;2.97;;
67237;SDS011;54149;52.708;6.178;2024-03-02T13:44:28;7.13;;;3.50;;
67237;SDS011;54149;52.708;6.178;2024-03-02T13:46:54;11.65;;;3.47;;
67237;SDS011;54149;52.708;6.178;2024-03-02T13:49:20;11.13;;;4.07;;
67237;SDS011;54149;52.708;6.178;2024-03-02T13:51:48;4.78;;;3.60;;
67237;SDS011;54149;52.708;6.178;2024-03-02T13:54:14;7.82;;;4.32;;
67237;SDS011;54149;52.708;6.178;2024-03-02T13:56:40;10.85;;;4.65;;
67237;SDS011;54149;52.708;6.178;2024-03-02T13:59:07;9.70;;;5.13;;
67237;SDS011;54149;52.708;6.178;2024-03-02T14:01:33;9.18;;;4.20;;
67237;SDS011;54149;52.708;6.178;2024-03-02T14:03:59;8.15;;;4.00;;
67237;SDS011;54149;52.708;6.178;2024-03-02T14:06:25;11.40;;;4.15;;
67237;SDS011;54149;52.708;6.178;2024-03-02T14:08:52;8.85;;;4.15;;
67237;SDS011;54149;52.708;6.178;2024-03-02T14:11:18;9.93;;;4.65;;
67237;SDS011;54149;52.708;6.178;2024-03-02T14:13:44;13.38;;;4.70;;
67237;SDS011;54149;52.708;6.178;2024-03-02T14:16:18;10.50;;;4.78;;
67237;SDS011;54149;52.708;6.178;2024-03-02T14:18:45;8.90;;;4.60;;
67237;SDS011;54149;52.708;6.178;2024-03-02T14:21:11;12.57;;;5.18;;
67237;SDS011;54149;52.708;6.178;2024-03-02T14:23:37;13.48;;;5.40;;
67237;SDS011;54149;52.708;6.178;2024-03-02T14:26:03;12.13;;;5.22;;
67237;SDS011;54149;52.708;6.178;2024-03-02T14:28:29;12.38;;;5.10;;
67237;SDS011;54149;52.708;6.178;2024-03-02T14:30:55;16.10;;;5.80;;
67237;SDS011;54149;52.708;6.178;2024-03-02T14:33:22;14.82;;;6.28;;
67237;SDS011;54149;52.708;6.178;2024-03-02T14:35:48;12.93;;;6.07;;
67237;SDS011;54149;52.708;6.178;2024-03-02T14:38:14;18.27;;;6.15;;
67237;SDS011;54149;52.708;6.178;2024-03-02T14:40:40;14.77;;;6.85;;
67237;SDS011;54149;52.708;6.178;2024-03-02T14:43:07;15.88;;;7.20;;
67237;SDS011;54149;52.708;6.178;2024-03-02T14:45:33;15.63;;;6.38;;
67237;SDS011;54149;52.708;6.178;2024-03-02T14:47:59;15.02;;;7.10;;
67237;SDS011;54149;52.708;6.178;2024-03-02T14:50:25;17.45;;;7.55;;
67237;SDS011;54149;52.708;6.178;2024-03-02T14:52:52;13.27;;;7.45;;
67237;SDS011;54149;52.708;6.178;2024-03-02T14:55:18;17.88;;;7.47;;
67237;SDS011;54149;52.708;6.178;2024-03-02T14:57:44;19.40;;;7.78;;